Hlavní strana
METAR-TAF:

METAR-TAF

Letiště :

Båtsfjord, Norsko

zeměpisná šířka: 70-38N, zeměpisná délka: 029-44E, výška: 10 m

Aktuální stav počasí

Zpráva byla vytvořena před 28 minutami, v 09:50 UTC
Východní vítr 4 kt
Teplota 0°C
Vlhkost vzduchu 74%
Tlak 1000 hPa
Viditelnost 10 km a více
Polojasno ve výšce 3200 ft
Oblačno až skoro zataženo ve výšce 4000 ft

METAR: ENBS 230950Z 09004KT 9999 SCT032 BKN040 M00/M04 Q1000

Čas: 12:18 (10:18 UTC)


TAF: chybějící

Stav a předpovědi počasí z více než 4 000 letišť (zprávy METAR a TAF).

Červené a žluté tečky na mapě představují dostupné meteorologické stanice.

Když kurzor umístíte na tečku, zobrazí se název stanice.

Pak kliknutím zobrazíte stav a předpověď počasí.

Chcete-li změnit mapu, kliknutím na zelené tlačítko se znaménkem +mapu přiblížíte, kliknutím na zelené tlačítko se znaménkem – mapu oddálíte a kliknutím na zelené šipky přejdete na sousední mapy.


METAR-TAF: